Time;durP1;ratioP1;P1;durP2;ratioP2;P2;SDS_P1;SDS_P2;PMS_P1;PMS_P2;Temp;Humidity;BMP_temperature;BMP_pressure;BME280_temperature;BME280_humidity;BME280_pressure;Samples;Min_cycle;Max_cycle;Signal;HPM_P1;HPM_P2
2021/05/01 00:01:17;;;;;;;5.32;3.42;;;7.10;99.90;;;;;;5020465;28;20021;-79
2021/05/01 00:03:42;;;;;;;7.53;3.40;;;7.10;99.90;;;;;;5013747;28;20021;-79
2021/05/01 00:06:08;;;;;;;12.60;4.15;;;7.10;99.90;;;;;;5016362;28;20022;-79
2021/05/01 00:08:33;;;;;;;7.45;3.92;;;7.10;99.90;;;;;;5016846;28;20026;-80
2021/05/01 00:11:01;;;;;;;7.32;4.43;;;7.00;99.90;;;;;;5015951;28;20095;-79
2021/05/01 00:13:27;;;;;;;9.18;4.85;;;7.10;99.90;;;;;;5026484;28;20032;-80
2021/05/01 00:15:53;;;;;;;6.93;4.20;;;7.10;99.90;;;;;;5020886;28;20030;-79
2021/05/01 00:18:18;;;;;;;7.45;4.13;;;7.00;99.90;;;;;;5026519;28;20037;-79
2021/05/01 00:20:44;;;;;;;8.07;4.35;;;7.00;99.90;;;;;;5029639;28;20074;-79
2021/05/01 00:23:09;;;;;;;9.05;3.72;;;7.00;99.90;;;;;;5014999;28;20025;-79
2021/05/01 00:25:35;;;;;;;7.50;3.80;;;7.00;99.90;;;;;;5027998;28;20029;-79
2021/05/01 00:28:00;;;;;;;10.52;4.60;;;7.10;99.90;;;;;;5018058;28;20471;-79
2021/05/01 00:30:26;;;;;;;6.97;4.38;;;7.10;99.90;;;;;;5028526;28;20040;-79
2021/05/01 00:32:51;;;;;;;9.98;4.65;;;7.10;99.90;;;;;;5022967;28;20034;-79
2021/05/01 00:35:17;;;;;;;10.40;4.45;;;7.10;99.90;;;;;;5027827;28;20492;-79
2021/05/01 00:37:42;;;;;;;7.40;4.30;;;7.10;99.90;;;;;;5015052;28;20130;-79
2021/05/01 00:40:09;;;;;;;6.53;3.80;;;7.10;99.90;;;;;;5026902;28;20041;-79
2021/05/01 00:42:35;;;;;;;11.52;4.25;;;7.10;99.90;;;;;;5025353;28;20022;-79
2021/05/01 00:45:01;;;;;;;7.30;3.78;;;7.20;99.90;;;;;;5025878;28;20034;-79
2021/05/01 00:47:27;;;;;;;12.07;4.47;;;7.20;99.90;;;;;;5018423;28;20468;-79
2021/05/01 00:49:52;;;;;;;10.95;4.25;;;7.10;99.90;;;;;;5028486;28;20045;-79
2021/05/01 00:52:18;;;;;;;7.45;4.25;;;7.10;99.90;;;;;;5014854;28;20556;-79
2021/05/01 00:54:44;;;;;;;6.35;3.42;;;7.10;99.90;;;;;;5022469;28;20030;-79
2021/05/01 00:57:10;;;;;;;6.22;3.70;;;7.10;99.90;;;;;;5021078;28;20080;-79
2021/05/01 00:59:36;;;;;;;8.23;4.20;;;7.10;99.90;;;;;;5020972;28;20092;-79
2021/05/01 01:02:01;;;;;;;6.78;4.18;;;7.20;99.90;;;;;;5026936;28;20033;-79
2021/05/01 01:04:27;;;;;;;8.23;4.50;;;7.20;99.90;;;;;;5029120;28;20036;-79
2021/05/01 01:06:52;;;;;;;8.27;4.10;;;7.30;99.90;;;;;;5023761;28;20029;-79
2021/05/01 01:09:18;;;;;;;9.30;4.47;;;7.30;99.90;;;;;;5012757;28;20069;-79
2021/05/01 01:11:44;;;;;;;7.53;4.07;;;7.30;99.90;;;;;;5017309;28;20059;-80
2021/05/01 01:14:13;;;;;;;11.40;5.40;;;7.30;99.90;;;;;;5027871;28;20025;-79
2021/05/01 01:16:40;;;;;;;9.00;4.18;;;7.20;99.90;;;;;;5017653;28;20030;-79
2021/05/01 01:19:07;;;;;;;10.32;4.55;;;7.20;99.90;;;;;;5021026;28;20431;-80
2021/05/01 01:21:49;;;;;;;8.90;4.95;;;7.20;99.90;;;;;;5021635;28;20034;-80
2021/05/01 01:24:15;;;;;;;9.93;4.63;;;7.10;99.90;;;;;;5018736;28;20472;-80
2021/05/01 01:26:41;;;;;;;9.10;4.63;;;7.20;99.90;;;;;;5019895;28;20041;-80
2021/05/01 01:29:08;;;;;;;7.43;4.07;;;7.20;99.90;;;;;;5014441;28;20091;-80
2021/05/01 01:31:34;;;;;;;14.00;5.15;;;7.10;99.90;;;;;;5022154;28;20076;-80
2021/05/01 01:34:01;;;;;;;11.30;5.10;;;7.10;99.90;;;;;;5021720;28;20030;-81
2021/05/01 01:36:27;;;;;;;10.57;5.13;;;7.10;99.90;;;;;;5021160;28;20029;-80
2021/05/01 01:39:14;;;;;;;5.97;3.40;;;7.20;99.90;;;;;;5017206;28;20014;-81
2021/05/01 01:41:39;;;;;;;7.75;3.90;;;7.20;99.90;;;;;;5021494;28;20038;-80
2021/05/01 01:44:05;;;;;;;8.57;4.10;;;7.20;99.90;;;;;;5026410;28;20029;-80
2021/05/01 01:46:30;;;;;;;6.38;3.78;;;7.20;99.90;;;;;;5021214;28;20049;-81
2021/05/01 01:48:56;;;;;;;7.05;4.30;;;7.30;99.90;;;;;;5024902;28;20026;-81
2021/05/01 01:51:21;;;;;;;6.82;3.80;;;7.30;99.90;;;;;;5028792;28;20056;-80
2021/05/01 01:53:47;;;;;;;8.48;3.90;;;7.20;99.90;;;;;;5015963;28;20448;-80
2021/05/01 01:56:12;;;;;;;7.70;4.15;;;7.20;99.90;;;;;;5028193;28;20028;-80
2021/05/01 01:58:38;;;;;;;7.43;3.47;;;7.30;99.90;;;;;;5014608;28;20673;-80
2021/05/01 02:01:03;;;;;;;9.73;3.95;;;7.30;99.90;;;;;;5022065;28;20508;-80
2021/05/01 02:03:29;;;;;;;7.80;3.80;;;7.30;99.90;;;;;;5019470;28;20516;-80
2021/05/01 02:05:54;;;;;;;7.70;4.15;;;7.30;99.90;;;;;;5016382;28;20030;-80
2021/05/01 02:08:20;;;;;;;7.32;4.03;;;7.40;99.90;;;;;;5017061;28;20018;-80
2021/05/01 02:10:46;;;;;;;8.60;3.90;;;7.40;99.90;;;;;;5013957;28;20780;-80
2021/05/01 02:13:11;;;;;;;9.25;4.15;;;7.40;99.90;;;;;;5019853;28;20039;-80
2021/05/01 02:15:37;;;;;;;7.20;3.90;;;7.40;99.90;;;;;;5024424;28;20033;-80
2021/05/01 02:18:03;;;;;;;8.98;4.35;;;7.40;99.90;;;;;;5022097;28;20435;-81
2021/05/01 02:20:32;;;;;;;7.60;4.13;;;7.40;99.90;;;;;;5017827;28;20030;-80
2021/05/01 02:22:58;;;;;;;5.53;3.63;;;7.40;99.90;;;;;;5014242;28;20037;-80
2021/05/01 02:25:24;;;;;;;8.77;4.28;;;7.40;99.90;;;;;;5016514;28;20033;-80
2021/05/01 02:27:51;;;;;;;12.95;4.70;;;7.50;99.90;;;;;;5012201;28;20040;-81
2021/05/01 02:30:19;;;;;;;8.80;3.63;;;7.50;99.90;;;;;;5026905;28;20033;-80
2021/05/01 02:32:45;;;;;;;6.65;3.85;;;7.50;99.90;;;;;;5022518;28;20129;-81
2021/05/01 02:35:14;;;;;;;7.82;3.80;;;7.50;99.90;;;;;;5027365;28;20056;-81
2021/05/01 02:37:41;;;;;;;9.57;4.05;;;7.50;99.90;;;;;;5022385;28;20037;-80
2021/05/01 02:40:09;;;;;;;8.48;3.95;;;7.50;99.90;;;;;;5023855;28;20057;-80
2021/05/01 02:42:41;;;;;;;7.25;4.20;;;7.50;99.90;;;;;;5020194;28;20038;-80
2021/05/01 02:45:09;;;;;;;7.20;3.67;;;7.40;99.90;;;;;;5014225;28;20028;-80
2021/05/01 02:47:36;;;;;;;6.25;3.55;;;7.50;99.90;;;;;;5017454;28;20036;-80
2021/05/01 02:50:03;;;;;;;7.10;3.95;;;7.50;99.90;;;;;;5021444;28;20561;-80
2021/05/01 02:52:28;;;;;;;7.00;3.63;;;7.50;99.90;;;;;;5022421;28;20124;-80
2021/05/01 02:54:54;;;;;;;10.05;3.47;;;7.50;99.90;;;;;;5014116;28;20113;-80
2021/05/01 02:57:20;;;;;;;7.18;3.85;;;7.50;99.90;;;;;;5021738;28;20486;-80
2021/05/01 02:59:45;;;;;;;6.55;3.38;;;7.60;99.90;;;;;;5027926;28;20196;-80
2021/05/01 03:02:11;;;;;;;7.47;3.50;;;7.60;99.90;;;;;;5020746;28;20438;-80
2021/05/01 03:04:36;;;;;;;9.60;3.65;;;7.60;99.90;;;;;;5024597;28;20025;-80
2021/05/01 03:07:02;;;;;;;9.63;3.65;;;7.50;99.90;;;;;;5022686;28;20532;-80
2021/05/01 03:09:27;;;;;;;6.88;3.67;;;7.50;99.90;;;;;;5024060;28;20022;-80
2021/05/01 03:11:53;;;;;;;8.65;4.10;;;7.50;99.90;;;;;;5013194;28;20413;-80
2021/05/01 03:14:19;;;;;;;9.95;3.70;;;7.50;99.90;;;;;;5025157;28;20018;-80
2021/05/01 03:16:44;;;;;;;5.40;3.58;;;7.50;99.90;;;;;;5021787;28;20034;-80
2021/05/01 03:19:09;;;;;;;8.27;3.50;;;7.50;99.90;;;;;;5027921;28;20489;-81
2021/05/01 03:21:35;;;;;;;6.50;3.78;;;7.50;99.90;;;;;;5011340;28;20030;-80
2021/05/01 03:24:01;;;;;;;6.68;3.70;;;7.50;99.90;;;;;;5021462;28;20491;-80
2021/05/01 03:26:26;;;;;;;9.32;4.03;;;7.50;99.90;;;;;;5024928;28;20060;-81
2021/05/01 03:28:52;;;;;;;7.88;3.95;;;7.60;99.90;;;;;;5020796;28;20053;-80
2021/05/01 03:31:17;;;;;;;11.35;4.82;;;7.60;99.90;;;;;;5023100;28;20030;-80
2021/05/01 03:33:43;;;;;;;10.75;4.68;;;7.60;99.90;;;;;;5018861;28;20025;-80
2021/05/01 03:36:09;;;;;;;9.43;4.55;;;7.60;99.90;;;;;;5019885;28;20053;-79
2021/05/01 03:38:34;;;;;;;6.88;3.72;;;7.60;99.90;;;;;;5017414;28;20038;-80
2021/05/01 03:41:00;;;;;;;8.07;3.53;;;7.60;99.90;;;;;;5020191;28;20025;-82
2021/05/01 03:43:26;;;;;;;6.95;3.72;;;7.60;99.90;;;;;;5026508;28;20034;-82
2021/05/01 03:45:51;;;;;;;7.75;4.22;;;7.60;99.90;;;;;;5025376;28;20034;-82
2021/05/01 03:48:17;;;;;;;10.20;4.13;;;7.60;99.90;;;;;;5026035;28;20392;-82
2021/05/01 03:50:42;;;;;;;7.82;4.43;;;7.50;99.90;;;;;;5028089;28;20053;-82
2021/05/01 03:53:08;;;;;;;12.93;4.70;;;7.60;99.90;;;;;;5031019;28;20515;-82
2021/05/01 03:55:33;;;;;;;8.68;4.70;;;7.50;99.90;;;;;;5023719;28;20034;-82
2021/05/01 03:57:59;;;;;;;11.98;4.72;;;7.60;99.90;;;;;;5022804;28;20057;-82
2021/05/01 04:00:25;;;;;;;7.80;4.28;;;7.60;99.90;;;;;;5026194;28;20026;-82
2021/05/01 04:02:50;;;;;;;8.80;4.40;;;7.70;99.90;;;;;;5024064;28;20025;-82
2021/05/01 04:05:16;;;;;;;8.65;4.57;;;7.70;99.90;;;;;;5019374;28;20542;-83
2021/05/01 04:07:42;;;;;;;11.05;4.82;;;7.80;99.90;;;;;;5021021;28;20555;-82
2021/05/01 04:10:08;;;;;;;8.15;4.40;;;7.70;99.90;;;;;;5024772;28;20119;-81
2021/05/01 04:12:34;;;;;;;7.75;4.47;;;7.80;99.90;;;;;;5019542;28;20057;-82
2021/05/01 04:14:59;;;;;;;8.88;4.85;;;7.90;99.90;;;;;;5016086;28;20053;-82
2021/05/01 04:17:25;;;;;;;8.73;4.57;;;7.90;99.90;;;;;;5023032;28;20026;-82
2021/05/01 04:19:51;;;;;;;7.82;4.20;;;8.00;99.90;;;;;;5021920;28;20037;-82
2021/05/01 04:22:17;;;;;;;8.13;4.40;;;8.00;99.90;;;;;;5022936;28;20033;-81
2021/05/01 04:24:43;;;;;;;11.57;4.57;;;8.00;99.90;;;;;;5014031;28;20076;-81
2021/05/01 04:27:08;;;;;;;11.00;4.30;;;8.00;99.90;;;;;;5025235;28;20033;-82
2021/05/01 04:29:34;;;;;;;7.20;3.92;;;8.10;99.90;;;;;;5021144;28;20484;-81
2021/05/01 04:31:59;;;;;;;8.15;5.03;;;8.20;99.90;;;;;;5017605;28;20057;-82
2021/05/01 04:34:25;;;;;;;11.35;4.25;;;8.20;99.90;;;;;;5024545;28;20036;-81
2021/05/01 04:36:50;;;;;;;8.32;5.22;;;8.20;99.90;;;;;;5017800;28;20396;-82
2021/05/01 04:39:16;;;;;;;9.10;4.88;;;8.20;99.90;;;;;;5028433;28;20029;-81
2021/05/01 04:41:42;;;;;;;8.50;4.47;;;8.30;99.90;;;;;;5026911;28;20060;-81
2021/05/01 04:44:07;;;;;;;11.55;4.35;;;8.30;99.90;;;;;;5026187;28;20532;-81
2021/05/01 04:46:33;;;;;;;7.25;4.60;;;8.40;99.90;;;;;;5014486;28;20030;-81
2021/05/01 04:48:58;;;;;;;12.27;5.47;;;8.40;99.90;;;;;;5029844;28;20092;-81
2021/05/01 04:51:24;;;;;;;13.07;5.32;;;8.40;99.90;;;;;;5026150;28;20076;-82
2021/05/01 04:53:49;;;;;;;10.57;5.15;;;8.40;99.90;;;;;;5025536;28;20124;-82
2021/05/01 04:56:15;;;;;;;7.05;4.25;;;8.30;99.90;;;;;;5014913;28;20053;-81
2021/05/01 04:58:40;;;;;;;8.35;4.93;;;8.30;99.90;;;;;;5025185;28;20664;-81
2021/05/01 05:01:06;;;;;;;16.52;5.32;;;8.30;99.90;;;;;;5029136;28;20057;-81
2021/05/01 05:03:31;;;;;;;10.05;4.70;;;8.30;99.90;;;;;;5017904;28;20079;-81
2021/05/01 05:05:57;;;;;;;13.85;4.97;;;8.30;99.90;;;;;;5016033;28;20042;-81
2021/05/01 05:08:22;;;;;;;11.63;5.22;;;8.30;99.90;;;;;;5027686;28;20056;-81
2021/05/01 05:10:48;;;;;;;9.15;5.10;;;8.40;99.90;;;;;;5025468;28;20515;-81
2021/05/01 05:13:13;;;;;;;9.48;4.40;;;8.40;99.90;;;;;;5023158;28;20026;-81
2021/05/01 05:15:39;;;;;;;8.82;4.68;;;8.50;99.90;;;;;;5027134;28;20044;-82
2021/05/01 05:18:05;;;;;;;10.45;4.47;;;8.50;99.90;;;;;;5021548;28;20045;-81
2021/05/01 05:20:30;;;;;;;11.45;4.75;;;8.60;99.90;;;;;;5019455;28;20024;-81
2021/05/01 05:22:56;;;;;;;12.93;4.75;;;8.60;99.90;;;;;;5015827;28;20041;-82
2021/05/01 05:25:21;;;;;;;13.68;5.10;;;8.50;99.90;;;;;;5029654;28;20022;-81
2021/05/01 05:27:47;;;;;;;9.93;4.68;;;8.60;99.90;;;;;;5018189;28;20054;-81
2021/05/01 05:30:13;;;;;;;8.40;4.70;;;8.60;99.90;;;;;;5025761;28;20029;-81
2021/05/01 05:32:39;;;;;;;10.50;5.28;;;8.60;99.90;;;;;;5024070;28;20037;-81
2021/05/01 05:35:05;;;;;;;8.70;5.03;;;8.70;99.90;;;;;;5026467;28;20032;-81
2021/05/01 05:37:30;;;;;;;15.30;5.18;;;8.80;99.90;;;;;;5025295;28;20036;-81
2021/05/01 05:39:57;;;;;;;9.95;4.75;;;8.80;99.90;;;;;;5024368;28;20025;-81
2021/05/01 05:42:23;;;;;;;11.40;4.72;;;8.80;99.90;;;;;;5022625;28;20034;-81
2021/05/01 05:44:50;;;;;;;10.52;5.10;;;8.80;99.90;;;;;;5020509;28;20488;-81
2021/05/01 05:47:17;;;;;;;9.65;4.47;;;8.80;99.90;;;;;;5022283;28;20036;-80
2021/05/01 05:49:42;;;;;;;11.93;5.70;;;8.80;99.90;;;;;;5015143;28;20034;-81
2021/05/01 05:52:08;;;;;;;11.40;5.72;;;8.80;99.90;;;;;;5026514;28;20229;-81
2021/05/01 05:54:34;;;;;;;13.15;5.28;;;8.80;99.90;;;;;;5025331;28;20108;-81
2021/05/01 05:57:00;;;;;;;8.68;5.53;;;8.70;99.90;;;;;;5019532;28;20034;-82
2021/05/01 05:59:25;;;;;;;11.75;4.90;;;8.70;99.90;;;;;;5019059;28;20515;-81
2021/05/01 06:01:52;;;;;;;8.95;5.15;;;8.80;99.90;;;;;;5017316;28;20021;-81
2021/05/01 06:04:24;;;;;;;11.90;4.63;;;8.80;99.90;;;;;;5024198;28;20037;-81
2021/05/01 06:07:04;;;;;;;8.77;4.95;;;8.80;99.90;;;;;;5024525;28;20029;-81
2021/05/01 06:09:30;;;;;;;12.88;4.90;;;8.80;99.90;;;;;;5015063;28;20030;-81
2021/05/01 06:12:00;;;;;;;8.93;5.05;;;8.80;99.90;;;;;;5028317;28;20021;-81
2021/05/01 06:14:27;;;;;;;13.25;5.95;;;8.90;99.90;;;;;;5028473;28;20056;-81
2021/05/01 06:16:55;;;;;;;19.08;6.25;;;8.90;99.90;;;;;;5024974;28;20129;-81
2021/05/01 06:19:20;;;;;;;13.73;4.78;;;9.00;99.90;;;;;;5016693;28;20500;-80
2021/05/01 06:21:46;;;;;;;8.65;4.88;;;9.00;99.90;;;;;;5014535;28;20044;-81
2021/05/01 06:24:12;;;;;;;11.90;5.30;;;9.10;99.90;;;;;;5019921;28;20051;-80
2021/05/01 06:26:39;;;;;;;12.57;5.40;;;9.10;99.90;;;;;;5028297;28;20036;-80
2021/05/01 06:29:05;;;;;;;10.20;5.45;;;9.10;99.90;;;;;;5023470;28;20033;-80
2021/05/01 06:31:35;;;;;;;10.45;5.57;;;9.20;99.90;;;;;;5022144;28;20030;-81
2021/05/01 06:34:01;;;;;;;10.35;5.15;;;9.20;99.90;;;;;;5020325;28;20045;-80
2021/05/01 06:36:27;;;;;;;12.88;5.13;;;9.30;99.90;;;;;;5018580;28;20034;-81
2021/05/01 06:38:58;;;;;;;14.88;5.97;;;9.30;99.90;;;;;;5027246;28;20025;-80
2021/05/01 06:41:25;;;;;;;9.60;5.72;;;9.40;99.90;;;;;;5019507;28;20025;-81
2021/05/01 06:44:03;;;;;;;13.27;6.68;;;9.40;99.90;;;;;;5020887;28;20025;-81
2021/05/01 06:46:30;;;;;;;10.73;5.32;;;9.50;99.90;;;;;;5021155;28;20028;-80
2021/05/01 06:48:58;;;;;;;10.45;5.82;;;9.50;99.90;;;;;;5013722;28;20481;-80
2021/05/01 06:51:25;;;;;;;11.02;5.47;;;9.50;99.90;;;;;;5017817;28;20041;-81
2021/05/01 06:53:51;;;;;;;12.10;5.38;;;9.50;99.90;;;;;;5021988;28;20435;-80
2021/05/01 06:56:17;;;;;;;13.35;5.65;;;9.50;99.90;;;;;;5027932;28;20029;-80
2021/05/01 06:58:43;;;;;;;11.13;5.60;;;9.50;99.90;;;;;;5021062;28;20037;-80
2021/05/01 07:01:11;;;;;;;11.65;5.32;;;9.60;99.90;;;;;;5018708;28;20065;-80
2021/05/01 07:03:43;;;;;;;16.63;6.38;;;9.60;99.90;;;;;;5015199;28;20082;-81
2021/05/01 07:06:09;;;;;;;13.73;5.97;;;9.60;99.90;;;;;;5019294;28;20033;-81
2021/05/01 07:08:35;;;;;;;10.85;5.68;;;9.60;99.90;;;;;;5014449;28;20045;-82
2021/05/01 07:11:05;;;;;;;13.82;5.47;;;9.60;99.90;;;;;;5028033;28;20032;-84
2021/05/01 07:13:30;;;;;;;13.90;5.68;;;9.60;99.90;;;;;;5017867;28;20030;-82
2021/05/01 07:16:01;;;;;;;15.60;6.60;;;9.70;99.90;;;;;;5016261;28;20377;-82
2021/05/01 07:18:27;;;;;;;8.82;5.10;;;9.80;99.90;;;;;;5016335;28;20033;-82
2021/05/01 07:20:57;;;;;;;13.45;6.07;;;9.80;99.90;;;;;;5021062;28;20531;-82
2021/05/01 07:23:22;;;;;;;16.20;5.55;;;9.80;99.90;;;;;;5032847;28;20488;-82
2021/05/01 07:25:47;;;;;;;22.42;6.00;;;9.80;99.90;;;;;;5029836;28;20025;-82
2021/05/01 07:28:16;;;;;;;9.63;5.55;;;9.80;99.90;;;;;;5028474;28;20104;-84
2021/05/01 07:30:42;;;;;;;31.80;6.15;;;9.80;99.90;;;;;;5030866;28;20408;-84
2021/05/01 07:33:31;;;;;;;16.90;7.25;;;9.90;99.90;;;;;;5024498;28;20480;-83
2021/05/01 07:36:11;;;;;;;11.70;5.82;;;9.90;99.90;;;;;;5027176;28;20056;-83
2021/05/01 07:38:38;;;;;;;11.93;5.85;;;9.90;99.90;;;;;;5030676;28;20148;-80
2021/05/01 07:41:04;;;;;;;16.13;6.43;;;10.00;99.90;;;;;;5031088;28;20028;-81
2021/05/01 07:43:31;;;;;;;12.82;6.72;;;10.00;99.90;;;;;;5021523;28;20030;-84
2021/05/01 07:46:06;;;;;;;13.82;5.90;;;10.00;99.90;;;;;;5022505;28;20033;-84
2021/05/01 07:48:32;;;;;;;12.70;6.32;;;10.10;99.90;;;;;;5021960;28;20026;-75
2021/05/01 07:50:58;;;;;;;18.65;7.40;;;10.10;99.90;;;;;;5020569;28;20086;-76
2021/05/01 07:53:25;;;;;;;17.02;6.68;;;10.10;99.90;;;;;;5024270;28;20446;-80
2021/05/01 07:55:50;;;;;;;15.43;7.00;;;10.20;99.90;;;;;;5031564;28;20041;-76
2021/05/01 07:58:16;;;;;;;13.85;5.63;;;10.20;99.90;;;;;;5029497;28;20384;-73
2021/05/01 08:00:43;;;;;;;12.52;6.07;;;10.30;99.90;;;;;;5016399;28;20022;-73
2021/05/01 08:03:09;;;;;;;13.15;6.50;;;10.30;99.90;;;;;;5029310;28;20029;-76
2021/05/01 08:05:34;;;;;;;16.00;6.65;;;10.30;99.90;;;;;;5022565;28;20030;-74
2021/05/01 08:08:00;;;;;;;13.00;5.80;;;10.30;99.90;;;;;;5028459;28;20064;-76
2021/05/01 08:10:26;;;;;;;12.50;5.78;;;10.40;99.90;;;;;;5022217;28;20030;-78
2021/05/01 08:12:52;;;;;;;16.60;6.50;;;10.50;99.90;;;;;;5031401;28;20037;-81
2021/05/01 08:15:18;;;;;;;15.85;6.18;;;10.60;99.90;;;;;;5037121;28;20393;-83
2021/05/01 08:17:43;;;;;;;11.98;5.38;;;10.70;99.90;;;;;;5018725;28;20060;-82
2021/05/01 08:20:10;;;;;;;18.45;6.70;;;10.80;99.90;;;;;;5026094;28;20029;-84
2021/05/01 08:22:37;;;;;;;11.55;6.43;;;10.90;99.90;;;;;;5030380;28;20025;-80
2021/05/01 08:25:05;;;;;;;12.18;6.00;;;11.00;99.90;;;;;;5030690;28;20063;-83
2021/05/01 08:27:31;;;;;;;14.25;6.43;;;11.10;99.90;;;;;;5030880;28;20383;-85
2021/05/01 08:29:58;;;;;;;10.98;6.18;;;11.30;99.90;;;;;;5027788;28;20025;-82
2021/05/01 08:32:24;;;;;;;15.57;6.55;;;11.40;99.90;;;;;;5025853;28;20021;-80
2021/05/01 08:34:52;;;;;;;18.38;6.90;;;11.50;99.90;;;;;;5025035;28;20404;-86
2021/05/01 08:37:20;;;;;;;16.25;6.70;;;11.60;99.90;;;;;;5023711;28;20072;-82
2021/05/01 08:39:46;;;;;;;18.55;7.32;;;11.80;99.90;;;;;;5030128;28;20049;-80
2021/05/01 08:42:11;;;;;;;13.15;6.13;;;12.00;99.90;;;;;;5029174;28;20049;-83
2021/05/01 08:44:37;;;;;;;13.68;6.07;;;12.10;99.90;;;;;;5031589;28;20041;-85
2021/05/01 08:47:05;;;;;;;21.75;6.72;;;12.30;99.90;;;;;;5020478;28;20112;-80
2021/05/01 08:49:31;;;;;;;15.82;7.70;;;12.40;99.90;;;;;;5021635;28;20030;-81
2021/05/01 08:51:58;;;;;;;13.38;7.07;;;12.50;99.90;;;;;;5025482;28;20050;-83
2021/05/01 08:54:23;;;;;;;15.98;7.18;;;12.60;99.90;;;;;;5029589;28;20462;-82
2021/05/01 08:56:49;;;;;;;14.52;6.60;;;12.60;99.90;;;;;;5026416;28;20148;-83
2021/05/01 08:59:15;;;;;;;19.42;7.10;;;12.80;99.90;;;;;;5028490;28;20428;-85
2021/05/01 09:01:41;;;;;;;16.75;7.03;;;13.00;99.90;;;;;;5029044;28;20021;-84
2021/05/01 09:04:09;;;;;;;10.15;6.03;;;13.20;99.80;;;;;;5021816;28;20408;-83
2021/05/01 09:06:36;;;;;;;16.17;6.80;;;13.10;99.90;;;;;;5022844;28;20484;-85
2021/05/01 09:09:07;;;;;;;14.63;7.10;;;13.10;99.30;;;;;;5018766;28;20500;-84
2021/05/01 09:11:35;;;;;;;14.30;6.28;;;13.20;99.90;;;;;;5020105;28;20034;-81
2021/05/01 09:14:14;;;;;;;16.05;6.88;;;13.40;99.90;;;;;;5021815;28;20037;-79
2021/05/01 09:16:41;;;;;;;13.82;6.22;;;13.70;97.90;;;;;;5018185;28;20054;-81
2021/05/01 09:19:06;;;;;;;13.90;6.00;;;13.70;96.50;;;;;;5023363;28;20029;-81
2021/05/01 09:21:33;;;;;;;11.15;5.75;;;13.90;96.80;;;;;;5018997;28;20025;-78
2021/05/01 09:23:59;;;;;;;19.48;7.03;;;13.90;95.30;;;;;;5021978;28;20396;-78
2021/05/01 09:26:38;;;;;;;16.48;7.25;;;14.00;95.10;;;;;;5031047;28;20028;-76
2021/05/01 09:29:04;;;;;;;11.70;5.60;;;14.00;94.80;;;;;;5019895;28;20028;-73
2021/05/01 09:31:40;;;;;;;12.85;6.28;;;14.10;93.90;;;;;;5022136;28;20041;-74
2021/05/01 09:34:06;;;;;;;18.90;5.53;;;13.80;95.00;;;;;;5023522;28;20026;-73
2021/05/01 09:36:32;;;;;;;22.75;6.45;;;13.90;97.40;;;;;;5022670;28;20488;-75
2021/05/01 09:38:58;;;;;;;11.43;6.55;;;13.80;95.40;;;;;;5012140;28;20064;-75
2021/05/01 09:41:27;;;;;;;11.95;6.57;;;13.80;95.40;;;;;;5018641;28;20068;-75
2021/05/01 09:44:06;;;;;;;15.20;6.55;;;13.80;95.40;;;;;;5023203;28;20717;-76
2021/05/01 09:46:38;;;;;;;14.77;6.38;;;13.70;96.10;;;;;;5015990;28;20033;-75
2021/05/01 09:49:12;;;;;;;15.00;6.15;;;13.60;94.70;;;;;;5017221;28;20025;-75
2021/05/01 09:51:47;;;;;;;10.38;6.03;;;13.50;95.50;;;;;;5025789;28;20059;-75
2021/05/01 09:54:14;;;;;;;11.85;6.75;;;13.50;94.60;;;;;;5023508;28;20017;-77
2021/05/01 09:56:42;;;;;;;11.38;6.00;;;13.60;94.30;;;;;;5023105;28;20057;-76
2021/05/01 09:59:08;;;;;;;12.90;5.55;;;13.60;92.80;;;;;;5019241;28;20026;-75
2021/05/01 10:01:34;;;;;;;17.10;6.13;;;13.60;92.70;;;;;;5023220;28;20056;-76
2021/05/01 10:04:18;;;;;;;14.25;6.40;;;13.50;92.90;;;;;;5021463;28;20049;-76
2021/05/01 10:06:48;;;;;;;17.55;6.38;;;13.60;92.80;;;;;;5017731;28;20029;-76
2021/05/01 10:09:24;;;;;;;12.93;5.85;;;13.50;92.40;;;;;;5022871;28;20037;-76
2021/05/01 10:11:52;;;;;;;12.75;5.75;;;13.60;92.10;;;;;;5013436;28;20168;-75
2021/05/01 10:14:30;;;;;;;12.52;6.30;;;13.50;92.30;;;;;;5023624;28;20021;-77
2021/05/01 10:16:56;;;;;;;11.18;5.80;;;13.70;92.20;;;;;;5022713;28;20021;-76
2021/05/01 10:19:22;;;;;;;8.68;5.18;;;13.70;90.10;;;;;;5026693;28;20369;-77
2021/05/01 10:21:48;;;;;;;10.95;5.43;;;13.70;90.80;;;;;;5024953;28;20072;-77
2021/05/01 10:24:14;;;;;;;13.63;6.05;;;13.60;91.40;;;;;;5020810;28;20021;-76
2021/05/01 10:26:42;;;;;;;9.45;5.70;;;13.60;91.20;;;;;;5027803;28;20145;-77
2021/05/01 10:29:08;;;;;;;12.32;6.32;;;13.30;91.10;;;;;;5019183;28;20632;-76
2021/05/01 10:31:52;;;;;;;10.82;5.45;;;13.20;92.30;;;;;;5021691;28;20029;-77
2021/05/01 10:34:22;;;;;;;13.82;5.72;;;13.20;92.10;;;;;;5012218;28;20028;-76
2021/05/01 10:36:49;;;;;;;12.32;5.80;;;13.20;92.50;;;;;;5019381;28;20030;-75
2021/05/01 10:39:16;;;;;;;11.05;5.47;;;13.10;91.20;;;;;;5020405;28;20099;-75
2021/05/01 10:42:03;;;;;;;12.02;5.65;;;13.10;92.00;;;;;;5020774;28;20078;-75
2021/05/01 10:44:29;;;;;;;11.82;5.22;;;13.00;91.70;;;;;;5012564;28;20479;-74
2021/05/01 10:47:13;;;;;;;15.32;5.15;;;12.80;93.20;;;;;;5020681;28;20109;-76
2021/05/01 10:49:38;;;;;;;9.48;5.57;;;12.80;95.00;;;;;;5020281;28;20030;-75
2021/05/01 10:52:19;;;;;;;10.77;5.50;;;12.80;94.20;;;;;;5026298;28;20128;-74
2021/05/01 10:55:05;;;;;;;13.60;6.25;;;12.90;94.80;;;;;;5016958;28;20068;-74
2021/05/01 10:57:32;;;;;;;10.82;5.35;;;13.20;94.00;;;;;;5018444;28;20026;-75
2021/05/01 11:00:07;;;;;;;11.43;5.25;;;13.50;91.40;;;;;;5025193;28;20034;-76
2021/05/01 11:02:38;;;;;;;10.18;6.22;;;13.60;90.90;;;;;;5021188;28;20026;-76
2021/05/01 11:05:13;;;;;;;9.00;5.43;;;13.70;91.50;;;;;;5020077;28;20040;-76
2021/05/01 11:08:09;;;;;;;11.65;5.13;;;13.70;89.20;;;;;;5024375;28;20049;-74
2021/05/01 11:10:34;;;;;;;9.60;5.38;;;13.90;91.20;;;;;;5017621;28;20037;-76
2021/05/01 11:13:03;;;;;;;9.07;4.97;;;14.30;90.90;;;;;;4998497;28;20087;-75
2021/05/01 11:15:45;;;;;;;14.25;5.70;;;14.60;87.20;;;;;;5019807;28;20028;-78
2021/05/01 11:18:14;;;;;;;8.65;5.00;;;14.60;85.30;;;;;;5023719;28;20049;-74
2021/05/01 11:20:42;;;;;;;14.57;6.82;;;14.60;83.40;;;;;;5023311;28;20079;-78
2021/05/01 11:23:13;;;;;;;11.82;5.53;;;14.70;81.70;;;;;;5021565;28;20041;-77
2021/05/01 11:25:40;;;;;;;15.65;6.00;;;14.60;80.90;;;;;;5025965;28;20125;-77
2021/05/01 11:28:07;;;;;;;10.05;4.85;;;14.50;79.70;;;;;;5023037;28;20504;-82
2021/05/01 11:30:32;;;;;;;9.10;5.30;;;14.50;78.90;;;;;;5025959;28;20040;-75
2021/05/01 11:32:58;;;;;;;10.68;5.72;;;14.50;78.80;;;;;;5010724;28;20026;-76
2021/05/01 11:35:29;;;;;;;11.80;5.88;;;14.50;80.20;;;;;;5018659;28;20575;-82
2021/05/01 11:38:00;;;;;;;10.27;5.32;;;14.60;79.80;;;;;;5018620;28;20069;-81
2021/05/01 11:40:28;;;;;;;17.70;5.72;;;14.60;80.00;;;;;;5010041;28;20088;-82
2021/05/01 11:42:56;;;;;;;10.35;5.05;;;14.70;80.40;;;;;;5016374;28;20030;-78
2021/05/01 11:45:36;;;;;;;10.20;5.38;;;14.80;78.40;;;;;;5019452;28;20025;-77
2021/05/01 11:48:05;;;;;;;10.15;5.68;;;14.80;78.00;;;;;;5021024;28;20034;-76
2021/05/01 11:50:37;;;;;;;12.13;5.20;;;14.90;79.00;;;;;;5019637;28;20546;-77
2021/05/01 11:53:19;;;;;;;9.65;5.38;;;15.00;79.00;;;;;;5017439;28;20029;-79
2021/05/01 11:56:02;;;;;;;11.57;5.38;;;15.00;81.00;;;;;;5018601;28;20112;-80
2021/05/01 11:58:34;;;;;;;9.75;5.28;;;14.90;77.80;;;;;;5019999;28;20632;-78
2021/05/01 12:01:16;;;;;;;7.78;5.15;;;14.70;77.40;;;;;;5017111;28;20101;-80
2021/05/01 12:03:52;;;;;;;9.77;5.75;;;14.60;76.90;;;;;;5014686;28;20037;-79
2021/05/01 12:06:25;;;;;;;8.60;5.47;;;14.60;79.50;;;;;;5018516;28;20484;-80
2021/05/01 12:08:51;;;;;;;11.77;5.97;;;14.80;78.60;;;;;;5019957;28;20036;-82
2021/05/01 12:11:19;;;;;;;9.82;5.30;;;14.90;80.30;;;;;;5019414;28;20034;-79
2021/05/01 12:13:47;;;;;;;10.45;5.82;;;14.80;79.40;;;;;;5020336;28;20120;-80
2021/05/01 12:16:19;;;;;;;10.93;5.85;;;14.70;79.90;;;;;;5030383;28;20029;-79
2021/05/01 12:18:46;;;;;;;12.23;5.35;;;14.60;78.40;;;;;;5021407;28;20064;-80
2021/05/01 12:21:18;;;;;;;10.90;4.97;;;14.50;77.60;;;;;;5021902;28;20033;-83
2021/05/01 12:23:47;;;;;;;19.83;5.07;;;14.30;78.30;;;;;;5017274;28;20026;-80
2021/05/01 12:26:38;;;;;;;10.68;5.93;;;14.20;79.70;;;;;;5014251;28;20022;-80
2021/05/01 12:29:19;;;;;;;10.05;5.28;;;14.10;80.20;;;;;;5021731;28;20026;-84
2021/05/01 12:31:47;;;;;;;10.35;5.40;;;13.90;80.00;;;;;;5018841;28;20057;-82
2021/05/01 12:37:37;;;;;;;10.18;4.75;;;13.70;82.40;;;;;;5017341;28;20040;-82
2021/05/01 12:40:06;;;;;;;11.80;6.07;;;13.70;81.90;;;;;;5024664;28;20021;-83
2021/05/01 12:42:33;;;;;;;16.08;5.93;;;13.60;84.50;;;;;;5020704;28;20112;-81
2021/05/01 12:45:00;;;;;;;10.98;5.35;;;13.50;81.80;;;;;;5013153;28;20033;-84
2021/05/01 12:47:38;;;;;;;10.68;5.30;;;13.50;81.10;;;;;;5019475;28;20094;-85
2021/05/01 12:50:24;;;;;;;8.20;4.97;;;13.50;80.80;;;;;;4999054;28;20488;-83
2021/05/01 12:52:51;;;;;;;7.55;4.43;;;13.60;81.00;;;;;;5019304;28;20038;-77
2021/05/01 12:55:18;;;;;;;11.35;5.38;;;13.60;82.20;;;;;;5026197;28;20052;-84